sensor_id;sensor_type;location;lat;lon;timestamp;pressure;altitude;pressure_sealevel;temperature;humidity
53270;BME280;39159;45.634;9.420;2023-03-11T00:02:16;97117.13;;;10.70;47.52
53270;BME280;39159;45.634;9.420;2023-03-11T00:04:41;97112.72;;;10.82;47.16
53270;BME280;39159;45.634;9.420;2023-03-11T00:07:09;97109.50;;;10.95;46.72
53270;BME280;39159;45.634;9.420;2023-03-11T00:09:35;97123.69;;;11.01;46.23
53270;BME280;39159;45.634;9.420;2023-03-11T00:12:01;97128.22;;;11.13;46.14
53270;BME280;39159;45.634;9.420;2023-03-11T00:14:27;97123.31;;;11.18;46.02
53270;BME280;39159;45.634;9.420;2023-03-11T00:16:52;97126.69;;;11.31;44.82
53270;BME280;39159;45.634;9.420;2023-03-11T00:19:18;97122.09;;;11.35;44.84
53270;BME280;39159;45.634;9.420;2023-03-11T00:21:43;97115.19;;;11.41;44.87
53270;BME280;39159;45.634;9.420;2023-03-11T00:24:09;97120.81;;;11.49;44.70
53270;BME280;39159;45.634;9.420;2023-03-11T00:26:34;97133.38;;;11.53;43.87
53270;BME280;39159;45.634;9.420;2023-03-11T00:29:00;97119.72;;;11.53;44.75
53270;BME280;39159;45.634;9.420;2023-03-11T00:31:25;97110.31;;;11.51;44.22
53270;BME280;39159;45.634;9.420;2023-03-11T00:33:54;97114.66;;;11.52;44.55
53270;BME280;39159;45.634;9.420;2023-03-11T00:36:31;97114.44;;;11.60;43.53
53270;BME280;39159;45.634;9.420;2023-03-11T00:39:02;97121.13;;;11.63;43.91
53270;BME280;39159;45.634;9.420;2023-03-11T00:41:31;97126.28;;;11.68;43.53
53270;BME280;39159;45.634;9.420;2023-03-11T00:43:57;97115.00;;;11.70;43.70
53270;BME280;39159;45.634;9.420;2023-03-11T00:46:23;97110.31;;;11.70;43.31
53270;BME280;39159;45.634;9.420;2023-03-11T00:48:52;97112.28;;;11.70;43.26
53270;BME280;39159;45.634;9.420;2023-03-11T00:51:17;97121.69;;;11.72;43.24
53270;BME280;39159;45.634;9.420;2023-03-11T00:53:43;97112.63;;;11.68;43.35
53270;BME280;39159;45.634;9.420;2023-03-11T00:56:11;97105.22;;;11.69;43.26
53270;BME280;39159;45.634;9.420;2023-03-11T00:58:37;97088.38;;;11.67;43.30
53270;BME280;39159;45.634;9.420;2023-03-11T01:01:14;97087.16;;;11.64;43.57
53270;BME280;39159;45.634;9.420;2023-03-11T01:03:39;97085.66;;;11.67;43.56
53270;BME280;39159;45.634;9.420;2023-03-11T01:06:06;97069.75;;;11.72;42.79
53270;BME280;39159;45.634;9.420;2023-03-11T01:08:32;97067.06;;;11.76;42.93
53270;BME280;39159;45.634;9.420;2023-03-11T01:10:58;97062.34;;;11.73;42.77
53270;BME280;39159;45.634;9.420;2023-03-11T01:13:25;97052.59;;;11.72;42.87
53270;BME280;39159;45.634;9.420;2023-03-11T01:15:51;97068.91;;;11.68;43.68
53270;BME280;39159;45.634;9.420;2023-03-11T01:18:17;97078.97;;;11.64;43.07
53270;BME280;39159;45.634;9.420;2023-03-11T01:20:42;97069.13;;;11.59;44.06
53270;BME280;39159;45.634;9.420;2023-03-11T01:23:08;97060.06;;;11.55;43.44
53270;BME280;39159;45.634;9.420;2023-03-11T01:25:34;97073.66;;;11.52;43.86
53270;BME280;39159;45.634;9.420;2023-03-11T01:28:00;97063.00;;;11.47;43.63
53270;BME280;39159;45.634;9.420;2023-03-11T01:30:27;97059.84;;;11.45;43.59
53270;BME280;39159;45.634;9.420;2023-03-11T01:32:55;97066.03;;;11.41;43.63
53270;BME280;39159;45.634;9.420;2023-03-11T01:35:23;97069.75;;;11.33;44.15
53270;BME280;39159;45.634;9.420;2023-03-11T01:37:49;97073.13;;;11.27;44.75
53270;BME280;39159;45.634;9.420;2023-03-11T01:43:01;97052.53;;;11.10;46.02
53270;BME280;39159;45.634;9.420;2023-03-11T01:45:41;97047.25;;;11.01;46.67
53270;BME280;39159;45.634;9.420;2023-03-11T01:48:08;97042.88;;;10.96;46.61
53270;BME280;39159;45.634;9.420;2023-03-11T01:50:37;97033.72;;;10.89;47.73
53270;BME280;39159;45.634;9.420;2023-03-11T01:53:04;97032.78;;;10.81;47.62
53270;BME280;39159;45.634;9.420;2023-03-11T01:55:31;97028.66;;;10.71;48.14
53270;BME280;39159;45.634;9.420;2023-03-11T01:57:59;97017.59;;;10.64;47.60
53270;BME280;39159;45.634;9.420;2023-03-11T02:00:26;97034.59;;;10.57;47.16
53270;BME280;39159;45.634;9.420;2023-03-11T02:02:54;97039.91;;;10.50;47.65
53270;BME280;39159;45.634;9.420;2023-03-11T02:05:22;97029.69;;;10.47;47.58
53270;BME280;39159;45.634;9.420;2023-03-11T02:07:49;97011.94;;;10.37;48.10
53270;BME280;39159;45.634;9.420;2023-03-11T02:10:16;97020.09;;;10.37;47.71
53270;BME280;39159;45.634;9.420;2023-03-11T02:12:42;97018.16;;;10.38;47.53
53270;BME280;39159;45.634;9.420;2023-03-11T02:15:09;97022.34;;;10.32;48.45
53270;BME280;39159;45.634;9.420;2023-03-11T02:17:37;97008.69;;;10.32;47.76
53270;BME280;39159;45.634;9.420;2023-03-11T02:20:18;96998.56;;;10.32;47.96
53270;BME280;39159;45.634;9.420;2023-03-11T02:22:46;96996.19;;;10.31;47.93
53270;BME280;39159;45.634;9.420;2023-03-11T02:27:57;96999.81;;;10.35;48.60
53270;BME280;39159;45.634;9.420;2023-03-11T02:30:24;97000.59;;;10.35;48.15
53270;BME280;39159;45.634;9.420;2023-03-11T02:32:52;97014.22;;;10.35;48.26
53270;BME280;39159;45.634;9.420;2023-03-11T02:35:19;97013.78;;;10.33;48.51
53270;BME280;39159;45.634;9.420;2023-03-11T02:37:47;97000.75;;;10.27;48.64
53270;BME280;39159;45.634;9.420;2023-03-11T02:42:49;97004.91;;;10.21;49.28
53270;BME280;39159;45.634;9.420;2023-03-11T02:45:17;97004.38;;;10.15;49.08
53270;BME280;39159;45.634;9.420;2023-03-11T02:47:44;97005.31;;;10.07;49.10
53270;BME280;39159;45.634;9.420;2023-03-11T02:50:13;97005.25;;;10.03;49.49
53270;BME280;39159;45.634;9.420;2023-03-11T02:52:39;97006.03;;;10.04;49.34
53270;BME280;39159;45.634;9.420;2023-03-11T02:55:05;97003.84;;;10.09;48.56
53270;BME280;39159;45.634;9.420;2023-03-11T02:57:31;97000.75;;;10.11;48.88
53270;BME280;39159;45.634;9.420;2023-03-11T02:59:57;96990.22;;;10.09;48.77
53270;BME280;39159;45.634;9.420;2023-03-11T03:02:24;96984.84;;;10.13;48.82
53270;BME280;39159;45.634;9.420;2023-03-11T03:04:49;96974.28;;;10.11;49.58
53270;BME280;39159;45.634;9.420;2023-03-11T03:07:15;96960.44;;;10.01;50.05
53270;BME280;39159;45.634;9.420;2023-03-11T03:09:40;96948.03;;;9.87;50.51
53270;BME280;39159;45.634;9.420;2023-03-11T03:12:06;96951.38;;;9.81;51.34
53270;BME280;39159;45.634;9.420;2023-03-11T03:14:32;96942.16;;;9.69;51.46
53270;BME280;39159;45.634;9.420;2023-03-11T03:16:57;96941.06;;;9.58;52.79
53270;BME280;39159;45.634;9.420;2023-03-11T03:19:23;96947.94;;;9.52;52.92
53270;BME280;39159;45.634;9.420;2023-03-11T03:21:48;96974.34;;;9.51;51.80
53270;BME280;39159;45.634;9.420;2023-03-11T03:24:14;96989.22;;;9.54;51.79
53270;BME280;39159;45.634;9.420;2023-03-11T03:26:40;96986.50;;;9.54;52.98
53270;BME280;39159;45.634;9.420;2023-03-11T03:29:05;96985.78;;;9.57;53.45
53270;BME280;39159;45.634;9.420;2023-03-11T03:31:31;97002.63;;;9.47;53.50
53270;BME280;39159;45.634;9.420;2023-03-11T03:33:56;97009.22;;;9.46;53.65
53270;BME280;39159;45.634;9.420;2023-03-11T03:36:22;97009.56;;;9.44;54.22
53270;BME280;39159;45.634;9.420;2023-03-11T03:38:51;97014.22;;;9.44;53.98
53270;BME280;39159;45.634;9.420;2023-03-11T03:41:17;96992.78;;;9.42;53.99
53270;BME280;39159;45.634;9.420;2023-03-11T03:43:42;96972.59;;;9.43;53.67
53270;BME280;39159;45.634;9.420;2023-03-11T03:46:08;96941.88;;;9.43;53.62
53270;BME280;39159;45.634;9.420;2023-03-11T03:48:33;96917.72;;;9.41;53.39
53270;BME280;39159;45.634;9.420;2023-03-11T03:51:07;96927.81;;;9.41;53.02
53270;BME280;39159;45.634;9.420;2023-03-11T03:53:34;96953.38;;;9.36;54.41
53270;BME280;39159;45.634;9.420;2023-03-11T03:56:04;96979.31;;;9.33;54.89
53270;BME280;39159;45.634;9.420;2023-03-11T03:58:29;96997.16;;;9.31;55.24
53270;BME280;39159;45.634;9.420;2023-03-11T04:00:56;97009.41;;;9.25;55.51
53270;BME280;39159;45.634;9.420;2023-03-11T04:03:22;96991.00;;;9.18;56.09
53270;BME280;39159;45.634;9.420;2023-03-11T04:05:47;97004.38;;;9.11;56.20
53270;BME280;39159;45.634;9.420;2023-03-11T04:08:13;97002.81;;;9.10;56.24
53270;BME280;39159;45.634;9.420;2023-03-11T04:10:38;97030.00;;;9.10;56.03
53270;BME280;39159;45.634;9.420;2023-03-11T04:13:04;97037.75;;;8.96;56.29
53270;BME280;39159;45.634;9.420;2023-03-11T04:15:29;97021.78;;;8.94;56.53
53270;BME280;39159;45.634;9.420;2023-03-11T04:17:55;97013.19;;;9.20;52.15
53270;BME280;39159;45.634;9.420;2023-03-11T04:20:20;96998.53;;;9.25;52.50
53270;BME280;39159;45.634;9.420;2023-03-11T04:22:45;97000.31;;;9.33;51.90
53270;BME280;39159;45.634;9.420;2023-03-11T04:25:11;96994.72;;;9.42;52.31
53270;BME280;39159;45.634;9.420;2023-03-11T04:27:36;96975.41;;;9.47;51.94
53270;BME280;39159;45.634;9.420;2023-03-11T04:30:03;96968.50;;;9.49;52.08
53270;BME280;39159;45.634;9.420;2023-03-11T04:32:29;96968.84;;;9.48;52.56
53270;BME280;39159;45.634;9.420;2023-03-11T04:34:55;96973.38;;;9.44;52.33
53270;BME280;39159;45.634;9.420;2023-03-11T04:37:20;96967.50;;;9.42;51.85
53270;BME280;39159;45.634;9.420;2023-03-11T04:39:46;96969.09;;;9.43;52.05
53270;BME280;39159;45.634;9.420;2023-03-11T04:42:11;96968.38;;;9.46;52.75
53270;BME280;39159;45.634;9.420;2023-03-11T04:44:38;96954.44;;;9.63;50.09
53270;BME280;39159;45.634;9.420;2023-03-11T04:47:03;96941.50;;;9.60;51.19
53270;BME280;39159;45.634;9.420;2023-03-11T04:49:29;96920.53;;;9.61;50.16
53270;BME280;39159;45.634;9.420;2023-03-11T04:51:55;96920.97;;;9.63;49.65
53270;BME280;39159;45.634;9.420;2023-03-11T04:54:20;96919.81;;;9.64;50.71
53270;BME280;39159;45.634;9.420;2023-03-11T04:56:46;96928.72;;;9.61;51.46
53270;BME280;39159;45.634;9.420;2023-03-11T04:59:11;96946.50;;;9.58;51.82
53270;BME280;39159;45.634;9.420;2023-03-11T05:01:37;96931.59;;;9.52;51.42
53270;BME280;39159;45.634;9.420;2023-03-11T05:04:02;96937.22;;;9.43;52.87
53270;BME280;39159;45.634;9.420;2023-03-11T05:06:28;96941.59;;;9.32;53.35
53270;BME280;39159;45.634;9.420;2023-03-11T05:08:53;96948.88;;;9.28;52.81
53270;BME280;39159;45.634;9.420;2023-03-11T05:11:19;96975.97;;;9.24;52.71
53270;BME280;39159;45.634;9.420;2023-03-11T05:13:44;97017.06;;;9.19;52.22
53270;BME280;39159;45.634;9.420;2023-03-11T05:16:10;97030.09;;;9.13;52.98
53270;BME280;39159;45.634;9.420;2023-03-11T05:18:35;97031.31;;;9.28;50.76
53270;BME280;39159;45.634;9.420;2023-03-11T05:21:01;97036.25;;;9.39;50.77
53270;BME280;39159;45.634;9.420;2023-03-11T05:23:26;97026.59;;;9.41;50.76
53270;BME280;39159;45.634;9.420;2023-03-11T05:25:51;97030.22;;;9.45;50.42
53270;BME280;39159;45.634;9.420;2023-03-11T05:28:17;97017.41;;;9.46;51.14
53270;BME280;39159;45.634;9.420;2023-03-11T05:30:42;97022.84;;;9.46;50.86
53270;BME280;39159;45.634;9.420;2023-03-11T05:33:08;97004.56;;;9.46;51.04
53270;BME280;39159;45.634;9.420;2023-03-11T05:35:33;96984.47;;;9.51;51.41
53270;BME280;39159;45.634;9.420;2023-03-11T05:37:59;96961.56;;;9.52;50.97
53270;BME280;39159;45.634;9.420;2023-03-11T05:40:24;96941.00;;;9.54;51.93
53270;BME280;39159;45.634;9.420;2023-03-11T05:42:50;96918.06;;;9.55;52.31
53270;BME280;39159;45.634;9.420;2023-03-11T05:45:16;96932.53;;;9.44;52.21
53270;BME280;39159;45.634;9.420;2023-03-11T05:47:41;96941.16;;;9.46;55.14
53270;BME280;39159;45.634;9.420;2023-03-11T05:50:08;96918.59;;;9.45;54.04
53270;BME280;39159;45.634;9.420;2023-03-11T05:52:34;96949.22;;;9.42;53.32
53270;BME280;39159;45.634;9.420;2023-03-11T05:54:59;96990.78;;;9.39;53.37
53270;BME280;39159;45.634;9.420;2023-03-11T05:57:25;96991.81;;;9.34;52.74
53270;BME280;39159;45.634;9.420;2023-03-11T05:59:50;97003.81;;;9.33;53.97
53270;BME280;39159;45.634;9.420;2023-03-11T06:02:15;96980.75;;;9.27;53.24
53270;BME280;39159;45.634;9.420;2023-03-11T06:04:41;96979.25;;;9.30;54.09
53270;BME280;39159;45.634;9.420;2023-03-11T06:07:06;96992.16;;;9.33;54.30
53270;BME280;39159;45.634;9.420;2023-03-11T06:09:32;96984.00;;;9.33;54.66
53270;BME280;39159;45.634;9.420;2023-03-11T06:12:02;96981.38;;;9.37;55.05
53270;BME280;39159;45.634;9.420;2023-03-11T06:14:27;96982.31;;;9.28;53.25
53270;BME280;39159;45.634;9.420;2023-03-11T06:16:56;96989.69;;;9.28;52.62
53270;BME280;39159;45.634;9.420;2023-03-11T06:19:22;96995.81;;;9.25;53.27
53270;BME280;39159;45.634;9.420;2023-03-11T06:21:47;96992.06;;;9.29;54.08
53270;BME280;39159;45.634;9.420;2023-03-11T06:24:12;97010.53;;;9.36;60.94
53270;BME280;39159;45.634;9.420;2023-03-11T06:26:38;97008.66;;;9.40;57.21
53270;BME280;39159;45.634;9.420;2023-03-11T06:29:03;97013.78;;;9.42;56.72
53270;BME280;39159;45.634;9.420;2023-03-11T06:31:29;97018.63;;;9.48;59.18
53270;BME280;39159;45.634;9.420;2023-03-11T06:33:55;97012.69;;;9.59;58.50
53270;BME280;39159;45.634;9.420;2023-03-11T06:36:21;97017.09;;;9.63;56.63
53270;BME280;39159;45.634;9.420;2023-03-11T06:38:47;97006.63;;;9.65;54.98
53270;BME280;39159;45.634;9.420;2023-03-11T06:41:14;97003.75;;;9.74;56.51
53270;BME280;39159;45.634;9.420;2023-03-11T06:43:40;96993.97;;;9.73;54.21
53270;BME280;39159;45.634;9.420;2023-03-11T06:46:10;96983.19;;;9.77;53.93
53270;BME280;39159;45.634;9.420;2023-03-11T06:48:36;96971.91;;;9.78;54.28
53270;BME280;39159;45.634;9.420;2023-03-11T06:51:02;96970.06;;;9.82;55.13
53270;BME280;39159;45.634;9.420;2023-03-11T06:53:28;96973.63;;;9.83;55.16
53270;BME280;39159;45.634;9.420;2023-03-11T06:56:08;96971.31;;;9.85;55.16
53270;BME280;39159;45.634;9.420;2023-03-11T06:58:35;96993.19;;;9.88;54.45
53270;BME280;39159;45.634;9.420;2023-03-11T07:01:12;97004.53;;;9.90;54.81
53270;BME280;39159;45.634;9.420;2023-03-11T07:03:38;96996.91;;;9.96;55.07
53270;BME280;39159;45.634;9.420;2023-03-11T07:06:05;96995.47;;;10.02;53.88
53270;BME280;39159;45.634;9.420;2023-03-11T07:08:30;96992.94;;;10.09;53.82
53270;BME280;39159;45.634;9.420;2023-03-11T07:13:24;96998.66;;;10.36;53.05
53270;BME280;39159;45.634;9.420;2023-03-11T07:15:58;97016.66;;;10.56;52.74
53270;BME280;39159;45.634;9.420;2023-03-11T07:18:24;97015.28;;;11.02;51.30
53270;BME280;39159;45.634;9.420;2023-03-11T07:20:50;97037.63;;;11.46;49.87
53270;BME280;39159;45.634;9.420;2023-03-11T07:23:15;97038.47;;;11.89;50.69
53270;BME280;39159;45.634;9.420;2023-03-11T07:25:45;97040.25;;;12.24;50.85
53270;BME280;39159;45.634;9.420;2023-03-11T07:28:11;97046.75;;;12.39;51.06
53270;BME280;39159;45.634;9.420;2023-03-11T07:30:37;97048.97;;;12.56;50.75
53270;BME280;39159;45.634;9.420;2023-03-11T07:33:03;97051.53;;;12.99;50.35
53270;BME280;39159;45.634;9.420;2023-03-11T07:35:28;97049.66;;;13.33;48.79
53270;BME280;39159;45.634;9.420;2023-03-11T07:37:54;97044.22;;;13.71;47.86
53270;BME280;39159;45.634;9.420;2023-03-11T07:40:19;97038.50;;;13.86;45.89
53270;BME280;39159;45.634;9.420;2023-03-11T07:42:45;97042.91;;;13.95;45.67
53270;BME280;39159;45.634;9.420;2023-03-11T07:45:10;97055.41;;;14.33;45.64
53270;BME280;39159;45.634;9.420;2023-03-11T07:47:36;97048.56;;;14.57;44.91
53270;BME280;39159;45.634;9.420;2023-03-11T07:50:01;97038.91;;;14.74;44.67
53270;BME280;39159;45.634;9.420;2023-03-11T07:52:29;97052.47;;;15.15;44.76
53270;BME280;39159;45.634;9.420;2023-03-11T07:54:55;97060.03;;;15.32;43.81
53270;BME280;39159;45.634;9.420;2023-03-11T07:57:20;97056.91;;;15.34;42.90
53270;BME280;39159;45.634;9.420;2023-03-11T07:59:46;97053.84;;;15.57;43.35
53270;BME280;39159;45.634;9.420;2023-03-11T08:02:11;97048.84;;;15.91;42.50
53270;BME280;39159;45.634;9.420;2023-03-11T08:04:37;97043.41;;;16.13;42.27
53270;BME280;39159;45.634;9.420;2023-03-11T08:07:02;97047.75;;;16.46;42.34
53270;BME280;39159;45.634;9.420;2023-03-11T08:09:28;97047.34;;;16.73;41.99
53270;BME280;39159;45.634;9.420;2023-03-11T08:11:53;97050.06;;;16.98;41.18
53270;BME280;39159;45.634;9.420;2023-03-11T08:14:19;97036.25;;;17.16;40.37
53270;BME280;39159;45.634;9.420;2023-03-11T08:16:44;97028.31;;;17.39;38.47
53270;BME280;39159;45.634;9.420;2023-03-11T08:19:11;97031.75;;;17.61;38.86
53270;BME280;39159;45.634;9.420;2023-03-11T08:21:37;97022.16;;;17.91;39.25
53270;BME280;39159;45.634;9.420;2023-03-11T08:24:02;97034.72;;;18.03;37.80
53270;BME280;39159;45.634;9.420;2023-03-11T08:26:29;97049.19;;;18.18;38.52
53270;BME280;39159;45.634;9.420;2023-03-11T08:28:56;97048.66;;;18.41;37.61
53270;BME280;39159;45.634;9.420;2023-03-11T08:31:26;97042.59;;;18.57;37.74
53270;BME280;39159;45.634;9.420;2023-03-11T08:33:54;97034.78;;;18.48;36.63
53270;BME280;39159;45.634;9.420;2023-03-11T08:36:20;97023.03;;;18.33;37.13
53270;BME280;39159;45.634;9.420;2023-03-11T08:38:46;97018.97;;;18.49;37.53
53270;BME280;39159;45.634;9.420;2023-03-11T08:41:12;97018.44;;;18.64;36.72
53270;BME280;39159;45.634;9.420;2023-03-11T08:43:38;97014.06;;;18.67;35.76
53270;BME280;39159;45.634;9.420;2023-03-11T08:46:04;97022.28;;;18.81;35.62
53270;BME280;39159;45.634;9.420;2023-03-11T08:48:33;97034.16;;;18.75;35.95
53270;BME280;39159;45.634;9.420;2023-03-11T08:51:00;97020.59;;;18.91;35.21
53270;BME280;39159;45.634;9.420;2023-03-11T08:53:27;97014.88;;;19.09;34.82
53270;BME280;39159;45.634;9.420;2023-03-11T08:55:52;97003.31;;;19.18;34.70
53270;BME280;39159;45.634;9.420;2023-03-11T08:58:18;96995.38;;;19.23;34.34
53270;BME280;39159;45.634;9.420;2023-03-11T09:00:44;96991.06;;;19.19;34.19
53270;BME280;39159;45.634;9.420;2023-03-11T09:03:10;96983.75;;;19.36;34.22
53270;BME280;39159;45.634;9.420;2023-03-11T09:05:36;96999.22;;;19.60;34.13
53270;BME280;39159;45.634;9.420;2023-03-11T09:08:02;96989.31;;;19.63;33.72
53270;BME280;39159;45.634;9.420;2023-03-11T09:10:28;96991.00;;;19.57;33.02
53270;BME280;39159;45.634;9.420;2023-03-11T09:12:53;96995.44;;;19.81;32.42
53270;BME280;39159;45.634;9.420;2023-03-11T09:15:18;97020.41;;;19.74;33.02
53270;BME280;39159;45.634;9.420;2023-03-11T09:17:44;97021.66;;;19.70;32.89
53270;BME280;39159;45.634;9.420;2023-03-11T09:20:12;97014.56;;;19.99;33.33
53270;BME280;39159;45.634;9.420;2023-03-11T09:22:37;97026.56;;;20.16;31.31
53270;BME280;39159;45.634;9.420;2023-03-11T09:25:03;97018.69;;;20.15;32.08
53270;BME280;39159;45.634;9.420;2023-03-11T09:27:28;97034.34;;;20.25;31.80
53270;BME280;39159;45.634;9.420;2023-03-11T09:29:54;97050.94;;;19.98;31.07
53270;BME280;39159;45.634;9.420;2023-03-11T09:32:20;97064.44;;;20.23;31.71
53270;BME280;39159;45.634;9.420;2023-03-11T09:34:45;97075.44;;;20.30;31.19
53270;BME280;39159;45.634;9.420;2023-03-11T09:37:10;97067.41;;;20.08;30.97
53270;BME280;39159;45.634;9.420;2023-03-11T09:39:36;97082.00;;;19.82;32.52
53270;BME280;39159;45.634;9.420;2023-03-11T09:42:19;97090.59;;;19.57;32.99
53270;BME280;39159;45.634;9.420;2023-03-11T09:45:04;97093.25;;;19.30;33.20
53270;BME280;39159;45.634;9.420;2023-03-11T09:47:37;97097.72;;;19.16;34.22
53270;BME280;39159;45.634;9.420;2023-03-11T09:53:02;97100.16;;;19.86;32.46
53270;BME280;39159;45.634;9.420;2023-03-11T09:55:46;97105.91;;;19.99;32.82
53270;BME280;39159;45.634;9.420;2023-03-11T10:00:56;97109.97;;;20.76;30.92
53270;BME280;39159;45.634;9.420;2023-03-11T10:03:28;97098.25;;;20.65;29.71
53270;BME280;39159;45.634;9.420;2023-03-11T10:06:23;97093.09;;;20.90;29.48
53270;BME280;39159;45.634;9.420;2023-03-11T10:14:40;97098.94;;;20.45;29.61
53270;BME280;39159;45.634;9.420;2023-03-11T10:20:33;97087.47;;;21.18;27.56
53270;BME280;39159;45.634;9.420;2023-03-11T10:22:38;97087.47;;;21.18;26.33
53270;BME280;39159;45.634;9.420;2023-03-11T10:25:14;97085.94;;;21.37;26.65
53270;BME280;39159;45.634;9.420;2023-03-11T10:27:46;97083.59;;;21.35;26.52
53270;BME280;39159;45.634;9.420;2023-03-11T10:30:30;97075.59;;;21.17;26.14
53270;BME280;39159;45.634;9.420;2023-03-11T10:35:41;97082.84;;;20.64;25.96
53270;BME280;39159;45.634;9.420;2023-03-11T10:38:22;97078.94;;;21.08;26.26
53270;BME280;39159;45.634;9.420;2023-03-11T10:40:52;97075.41;;;21.28;25.45
53270;BME280;39159;45.634;9.420;2023-03-11T10:43:28;97084.66;;;21.21;26.35
53270;BME280;39159;45.634;9.420;2023-03-11T10:45:56;97075.22;;;21.59;26.20
53270;BME280;39159;45.634;9.420;2023-03-11T10:48:24;97072.69;;;21.68;25.39
53270;BME280;39159;45.634;9.420;2023-03-11T10:53:21;97065.91;;;21.49;25.26
53270;BME280;39159;45.634;9.420;2023-03-11T10:55:49;97065.91;;;21.25;25.71
53270;BME280;39159;45.634;9.420;2023-03-11T10:58:21;97069.53;;;21.66;25.78
53270;BME280;39159;45.634;9.420;2023-03-11T11:01:15;97083.75;;;22.08;27.35
53270;BME280;39159;45.634;9.420;2023-03-11T11:03:42;97080.66;;;22.02;25.79
53270;BME280;39159;45.634;9.420;2023-03-11T11:08:47;97089.91;;;21.36;25.62
53270;BME280;39159;45.634;9.420;2023-03-11T11:11:22;97087.97;;;21.76;25.01
53270;BME280;39159;45.634;9.420;2023-03-11T11:13:58;97077.22;;;21.58;24.69
53270;BME280;39159;45.634;9.420;2023-03-11T11:16:25;97076.47;;;21.34;24.79
53270;BME280;39159;45.634;9.420;2023-03-11T11:19:10;97075.56;;;21.41;25.93
53270;BME280;39159;45.634;9.420;2023-03-11T11:24:26;97076.09;;;20.88;25.21
53270;BME280;39159;45.634;9.420;2023-03-11T11:32:33;97077.72;;;21.29;24.96
53270;BME280;39159;45.634;9.420;2023-03-11T11:35:06;97080.59;;;21.26;25.23
53270;BME280;39159;45.634;9.420;2023-03-11T11:37:37;97072.22;;;21.69;25.51
53270;BME280;39159;45.634;9.420;2023-03-11T11:40:16;97077.66;;;21.57;24.93
53270;BME280;39159;45.634;9.420;2023-03-11T11:42:53;97062.66;;;22.10;25.80
53270;BME280;39159;45.634;9.420;2023-03-11T11:47:59;97069.56;;;22.39;24.72
53270;BME280;39159;45.634;9.420;2023-03-11T11:50:36;97062.38;;;22.58;25.25
53270;BME280;39159;45.634;9.420;2023-03-11T11:53:23;97054.00;;;23.07;25.90
53270;BME280;39159;45.634;9.420;2023-03-11T11:55:50;97044.97;;;22.70;24.33
53270;BME280;39159;45.634;9.420;2023-03-11T11:58:18;97059.75;;;22.14;24.01
53270;BME280;39159;45.634;9.420;2023-03-11T12:00:52;97061.22;;;22.22;23.70
53270;BME280;39159;45.634;9.420;2023-03-11T12:16:58;97051.84;;;23.44;23.78
53270;BME280;39159;45.634;9.420;2023-03-11T12:19:31;97039.59;;;23.54;23.28
53270;BME280;39159;45.634;9.420;2023-03-11T12:30:30;97025.81;;;23.21;22.09
53270;BME280;39159;45.634;9.420;2023-03-11T12:33:01;97026.81;;;23.27;22.71
53270;BME280;39159;45.634;9.420;2023-03-11T12:35:30;97023.41;;;23.07;22.83
53270;BME280;39159;45.634;9.420;2023-03-11T12:38:15;97025.75;;;22.92;22.91
53270;BME280;39159;45.634;9.420;2023-03-11T12:40:47;97030.53;;;23.08;22.78
53270;BME280;39159;45.634;9.420;2023-03-11T12:50:54;97019.19;;;23.44;23.41
53270;BME280;39159;45.634;9.420;2023-03-11T12:53:41;97020.63;;;23.36;23.59
53270;BME280;39159;45.634;9.420;2023-03-11T12:56:33;97015.97;;;22.71;23.68
53270;BME280;39159;45.634;9.420;2023-03-11T13:12:44;96992.53;;;22.39;23.54
53270;BME280;39159;45.634;9.420;2023-03-11T13:17:57;96995.38;;;22.68;24.44
53270;BME280;39159;45.634;9.420;2023-03-11T13:31:22;96993.22;;;22.60;23.45
53270;BME280;39159;45.634;9.420;2023-03-11T13:33:55;96984.78;;;22.47;23.94
53270;BME280;39159;45.634;9.420;2023-03-11T13:36:40;96992.16;;;22.70;25.09
53270;BME280;39159;45.634;9.420;2023-03-11T13:42:02;96998.25;;;22.32;23.54
53270;BME280;39159;45.634;9.420;2023-03-11T13:44:36;96998.50;;;22.54;23.26
53270;BME280;39159;45.634;9.420;2023-03-11T13:47:12;96991.47;;;22.49;23.12
53270;BME280;39159;45.634;9.420;2023-03-11T13:49:47;97009.72;;;22.50;23.32
53270;BME280;39159;45.634;9.420;2023-03-11T13:52:31;97011.94;;;22.72;23.20
53270;BME280;39159;45.634;9.420;2023-03-11T13:57:35;97020.47;;;22.81;23.88
53270;BME280;39159;45.634;9.420;2023-03-11T14:00:15;97024.00;;;22.16;22.52
53270;BME280;39159;45.634;9.420;2023-03-11T14:03:08;97023.47;;;22.05;22.89
53270;BME280;39159;45.634;9.420;2023-03-11T14:05:40;97020.97;;;22.10;22.62
53270;BME280;39159;45.634;9.420;2023-03-11T14:10:56;97020.56;;;21.92;23.05
53270;BME280;39159;45.634;9.420;2023-03-11T14:13:23;97031.44;;;22.03;23.20
53270;BME280;39159;45.634;9.420;2023-03-11T14:21:26;97038.09;;;22.25;23.50
53270;BME280;39159;45.634;9.420;2023-03-11T14:23:53;97044.88;;;22.24;22.51
53270;BME280;39159;45.634;9.420;2023-03-11T14:26:41;97042.97;;;22.21;22.62
53270;BME280;39159;45.634;9.420;2023-03-11T14:29:10;97044.94;;;22.21;22.59
53270;BME280;39159;45.634;9.420;2023-03-11T14:31:41;97046.53;;;22.22;22.45
53270;BME280;39159;45.634;9.420;2023-03-11T14:34:13;97045.06;;;22.33;23.18
53270;BME280;39159;45.634;9.420;2023-03-11T14:36:53;97050.03;;;22.26;23.58
53270;BME280;39159;45.634;9.420;2023-03-11T14:39:35;97051.94;;;22.09;23.30
53270;BME280;39159;45.634;9.420;2023-03-11T14:45:13;97052.03;;;22.05;23.95
53270;BME280;39159;45.634;9.420;2023-03-11T14:47:46;97046.25;;;21.80;23.26
53270;BME280;39159;45.634;9.420;2023-03-11T14:50:33;97052.41;;;21.87;23.44
53270;BME280;39159;45.634;9.420;2023-03-11T14:55:45;97049.16;;;21.92;23.26
53270;BME280;39159;45.634;9.420;2023-03-11T15:00:55;97058.22;;;21.77;23.95
53270;BME280;39159;45.634;9.420;2023-03-11T15:03:25;97050.09;;;21.86;24.98
53270;BME280;39159;45.634;9.420;2023-03-11T15:06:16;97044.41;;;21.53;24.46
53270;BME280;39159;45.634;9.420;2023-03-11T15:09:07;97047.56;;;21.31;24.52
53270;BME280;39159;45.634;9.420;2023-03-11T15:11:45;97047.16;;;21.33;25.62
53270;BME280;39159;45.634;9.420;2023-03-11T15:16:51;97048.22;;;21.19;25.41